createdAt,value
2022-11-20T00:00:03.942Z,1006.55
2022-11-20T00:01:04.316Z,1006.51
2022-11-20T00:02:04.541Z,1006.46
2022-11-20T00:03:04.750Z,1006.50
2022-11-20T00:04:05.082Z,1006.49
2022-11-20T00:05:05.407Z,1006.56
2022-11-20T00:06:05.726Z,1006.44
2022-11-20T00:07:06.099Z,1006.45
2022-11-20T00:08:06.297Z,1006.47
2022-11-20T00:09:06.657Z,1006.45
2022-11-20T00:10:06.889Z,1006.45
2022-11-20T00:11:10.319Z,1006.45
2022-11-20T00:12:08.408Z,1006.48
2022-11-20T00:13:07.677Z,1006.42
2022-11-20T00:14:08.019Z,1006.38
2022-11-20T00:15:08.337Z,1006.42
2022-11-20T00:16:08.669Z,1006.36
2022-11-20T00:17:08.997Z,1006.40
2022-11-20T00:18:09.331Z,1006.37
2022-11-20T00:19:09.688Z,1006.38
2022-11-20T00:20:09.906Z,1006.41
2022-11-20T00:21:10.248Z,1006.40
2022-11-20T00:22:10.572Z,1006.39
2022-11-20T00:23:11.000Z,1006.43
2022-11-20T00:24:11.216Z,1006.41
2022-11-20T00:25:11.581Z,1006.49
2022-11-20T00:26:11.827Z,1006.44
2022-11-20T00:27:12.154Z,1006.42
2022-11-20T00:28:12.368Z,1006.46
2022-11-20T00:29:12.715Z,1006.44
2022-11-20T00:30:15.036Z,1006.42
2022-11-20T00:31:13.263Z,1006.38
2022-11-20T00:32:13.469Z,1006.46
2022-11-20T00:33:13.791Z,1006.49
2022-11-20T00:34:14.147Z,1006.48
2022-11-20T00:35:14.369Z,1006.47
2022-11-20T00:36:14.579Z,1006.41
2022-11-20T00:37:14.916Z,1006.45
2022-11-20T00:38:15.170Z,1006.45
2022-11-20T00:39:15.508Z,1006.44
2022-11-20T00:40:15.843Z,1006.45
2022-11-20T00:41:16.164Z,1006.40
2022-11-20T00:42:16.483Z,1006.45
2022-11-20T00:43:16.810Z,1006.51
2022-11-20T00:44:17.168Z,1006.46
2022-11-20T00:45:17.372Z,1006.49
2022-11-20T00:46:17.720Z,1006.49
2022-11-20T00:47:18.062Z,1006.48
2022-11-20T00:48:18.393Z,1006.49
2022-11-20T00:49:19.262Z,1006.53
2022-11-20T00:50:18.955Z,1006.49
2022-11-20T00:51:19.274Z,1006.54
2022-11-20T00:52:19.603Z,1006.58
2022-11-20T00:53:19.923Z,1006.53
2022-11-20T00:54:20.262Z,1006.57
2022-11-20T00:55:20.602Z,1006.57
2022-11-20T00:56:20.960Z,1006.51
2022-11-20T00:57:21.166Z,1006.49
2022-11-20T00:58:21.496Z,1006.56
2022-11-20T00:59:22.121Z,1006.53
2022-11-20T01:00:22.181Z,1006.45
2022-11-20T01:01:22.576Z,1006.49
2022-11-20T01:02:22.804Z,1006.47
2022-11-20T01:03:27.047Z,1006.52
2022-11-20T01:04:23.504Z,1006.50
2022-11-20T01:05:23.714Z,1006.57
2022-11-20T01:06:24.054Z,1006.59
2022-11-20T01:07:24.434Z,1006.58
2022-11-20T01:08:24.664Z,1006.60
2022-11-20T01:09:25.020Z,1006.59
2022-11-20T01:10:25.217Z,1006.53
2022-11-20T01:11:25.557Z,1006.59
2022-11-20T01:12:25.884Z,1006.57
2022-11-20T01:13:26.215Z,1006.57
2022-11-20T01:14:26.557Z,1006.54
2022-11-20T01:15:26.895Z,1006.56
2022-11-20T01:16:27.255Z,1006.56
2022-11-20T01:17:27.506Z,1006.53
2022-11-20T01:18:27.706Z,1006.61
2022-11-20T01:19:28.075Z,1006.62
2022-11-20T01:20:28.294Z,1006.56
2022-11-20T01:21:28.615Z,1006.56
2022-11-20T01:22:28.954Z,1006.57
2022-11-20T01:23:29.275Z,1006.57
2022-11-20T01:24:29.625Z,1006.51
2022-11-20T01:25:29.843Z,1006.49
2022-11-20T01:26:30.175Z,1006.47
2022-11-20T01:27:30.499Z,1006.46
2022-11-20T01:28:30.837Z,1006.46
2022-11-20T01:29:31.203Z,1006.43
2022-11-20T01:30:31.417Z,1006.45
2022-11-20T01:31:31.748Z,1006.44
2022-11-20T01:32:32.092Z,1006.49
2022-11-20T01:33:32.441Z,1006.47
2022-11-20T01:34:32.671Z,1006.43
2022-11-20T01:35:33.001Z,1006.48
2022-11-20T01:36:33.321Z,1006.47
2022-11-20T01:37:33.658Z,1006.49
2022-11-20T01:38:33.986Z,1006.47
2022-11-20T01:39:34.337Z,1006.52
2022-11-20T01:40:34.547Z,1006.43
2022-11-20T01:41:34.886Z,1006.50
2022-11-20T01:42:35.225Z,1006.46
2022-11-20T01:43:35.559Z,1006.49
2022-11-20T01:44:35.901Z,1006.47
2022-11-20T01:45:36.246Z,1006.41
2022-11-20T01:46:36.449Z,1006.44
2022-11-20T01:47:36.783Z,1006.41
2022-11-20T01:48:37.126Z,1006.40
2022-11-20T01:49:37.459Z,1006.44
2022-11-20T01:50:37.777Z,1006.46
2022-11-20T01:51:38.100Z,1006.47
2022-11-20T01:52:38.412Z,1006.51
2022-11-20T01:53:38.738Z,1006.48
2022-11-20T01:54:39.094Z,1006.44
2022-11-20T01:55:39.290Z,1006.50
2022-11-20T01:56:39.620Z,1006.52
2022-11-20T01:57:39.966Z,1006.50
2022-11-20T01:58:40.291Z,1006.44
2022-11-20T01:59:40.652Z,1006.41
2022-11-20T02:00:40.852Z,1006.41
2022-11-20T02:01:41.240Z,1006.39
2022-11-20T02:02:41.481Z,1006.35
2022-11-20T02:03:41.705Z,1006.34
2022-11-20T02:04:42.032Z,1006.33
2022-11-20T02:05:42.375Z,1006.40
2022-11-20T02:06:42.701Z,1006.33
2022-11-20T02:07:43.032Z,1006.32
2022-11-20T02:08:43.362Z,1006.31
2022-11-20T02:09:43.711Z,1006.34
2022-11-20T02:10:43.923Z,1006.27
2022-11-20T02:11:44.273Z,1006.26
2022-11-20T02:12:44.603Z,1006.21
2022-11-20T02:13:44.949Z,1006.19
2022-11-20T02:14:45.264Z,1006.24
2022-11-20T02:15:45.580Z,1006.28
2022-11-20T02:16:45.917Z,1006.26
2022-11-20T02:17:46.243Z,1006.39
2022-11-20T02:18:46.592Z,1006.34
2022-11-20T02:19:46.815Z,1006.39
2022-11-20T02:20:47.074Z,1006.38
2022-11-20T02:21:47.385Z,1006.33
2022-11-20T02:22:47.730Z,1006.34
2022-11-20T02:23:48.062Z,1006.33
2022-11-20T02:24:48.405Z,1006.32
2022-11-20T02:25:48.722Z,1006.30
2022-11-20T02:26:49.046Z,1006.28
2022-11-20T02:27:49.395Z,1006.33
2022-11-20T02:28:49.745Z,1006.33
2022-11-20T02:29:49.966Z,1006.29
2022-11-20T02:30:50.294Z,1006.29
2022-11-20T02:31:50.507Z,1006.32
2022-11-20T02:32:50.825Z,1006.30
2022-11-20T02:33:51.167Z,1006.30
2022-11-20T02:34:51.495Z,1006.28
2022-11-20T02:35:51.816Z,1006.18
2022-11-20T02:36:52.159Z,1006.17
2022-11-20T02:37:52.493Z,1006.25
2022-11-20T02:38:52.805Z,1006.18
2022-11-20T02:39:53.154Z,1006.17
2022-11-20T02:40:55.686Z,1006.24
2022-11-20T02:41:53.748Z,1006.17
2022-11-20T02:42:54.090Z,1006.14
2022-11-20T02:43:54.418Z,1006.23
2022-11-20T02:44:54.785Z,1006.22
2022-11-20T02:45:54.992Z,1006.21
2022-11-20T02:46:55.313Z,1006.18
2022-11-20T02:47:55.639Z,1006.15
2022-11-20T02:48:55.985Z,1006.20
2022-11-20T02:49:56.328Z,1006.15
2022-11-20T02:50:56.647Z,1006.21
2022-11-20T02:51:56.967Z,1006.17
2022-11-20T02:52:57.310Z,1006.24
2022-11-20T02:53:57.640Z,1006.17
2022-11-20T02:54:57.987Z,1006.20
2022-11-20T02:55:58.318Z,1006.20
2022-11-20T02:56:58.635Z,1006.25
2022-11-20T02:57:59.015Z,1006.21
2022-11-20T02:58:59.210Z,1006.15
2022-11-20T02:59:59.548Z,1006.22
2022-11-20T03:00:59.908Z,1006.12
2022-11-20T03:02:00.108Z,1006.14
2022-11-20T03:03:00.428Z,1006.21
2022-11-20T03:04:00.739Z,1006.23
2022-11-20T03:05:01.088Z,1006.17
2022-11-20T03:06:01.320Z,1006.11
2022-11-20T03:07:01.576Z,1006.19
2022-11-20T03:08:01.772Z,1006.17
2022-11-20T03:09:02.106Z,1006.12
2022-11-20T03:10:02.466Z,1006.14
2022-11-20T03:11:02.708Z,1006.09
2022-11-20T03:12:02.913Z,1006.08
2022-11-20T03:13:03.249Z,1006.10
2022-11-20T03:14:03.570Z,1006.12
2022-11-20T03:15:03.931Z,1006.06
2022-11-20T03:16:04.149Z,1006.17
2022-11-20T03:17:04.492Z,1006.16
2022-11-20T03:18:04.802Z,1006.20
2022-11-20T03:19:05.131Z,1006.20
2022-11-20T03:20:05.490Z,1006.16
2022-11-20T03:21:05.709Z,1006.19
2022-11-20T03:22:06.020Z,1006.16
2022-11-20T03:23:06.353Z,1006.19
2022-11-20T03:24:06.716Z,1006.14
2022-11-20T03:25:06.931Z,1006.17
2022-11-20T03:26:07.303Z,1006.13
2022-11-20T03:27:07.544Z,1006.15
2022-11-20T03:28:07.780Z,1006.09
2022-11-20T03:29:08.002Z,1006.13
2022-11-20T03:30:08.233Z,1006.14
2022-11-20T03:31:08.457Z,1006.04
2022-11-20T03:32:08.782Z,1006.08
2022-11-20T03:33:09.123Z,1006.13
2022-11-20T03:34:09.446Z,1006.06
2022-11-20T03:35:09.813Z,1006.05
2022-11-20T03:36:10.031Z,1006.04
2022-11-20T03:37:10.361Z,1006.08
2022-11-20T03:38:10.692Z,1005.99
2022-11-20T03:39:11.052Z,1005.99
2022-11-20T03:40:11.385Z,1005.97
2022-11-20T03:41:11.602Z,1005.97
2022-11-20T03:42:11.916Z,1006.02
2022-11-20T03:43:12.257Z,1005.96
2022-11-20T03:44:12.477Z,1005.96
2022-11-20T03:45:12.833Z,1005.96
2022-11-20T03:46:13.044Z,1005.90
2022-11-20T03:47:13.387Z,1005.93
2022-11-20T03:48:13.706Z,1005.86
2022-11-20T03:49:14.014Z,1005.94
2022-11-20T03:50:14.375Z,1005.92
2022-11-20T03:51:14.579Z,1005.93
2022-11-20T03:52:14.907Z,1005.93
2022-11-20T03:53:15.254Z,1005.90
2022-11-20T03:54:15.576Z,1005.87
2022-11-20T03:55:15.937Z,1005.92
2022-11-20T03:56:16.153Z,1005.89
2022-11-20T03:57:16.497Z,1005.93
2022-11-20T03:58:16.728Z,1005.86
2022-11-20T03:59:16.947Z,1005.92
2022-11-20T04:00:17.293Z,1005.87
2022-11-20T04:01:17.672Z,1005.90
2022-11-20T04:02:17.969Z,1005.85
2022-11-20T04:03:18.288Z,1005.90
2022-11-20T04:04:18.503Z,1005.84
2022-11-20T04:05:18.839Z,1005.88
2022-11-20T04:06:19.044Z,1005.85
2022-11-20T04:07:19.383Z,1005.80
2022-11-20T04:08:19.607Z,1005.86
2022-11-20T04:09:20.243Z,1005.83
2022-11-20T04:10:20.244Z,1005.74
2022-11-20T04:11:20.578Z,1005.79
2022-11-20T04:12:20.907Z,1005.79
2022-11-20T04:13:21.249Z,1005.76
2022-11-20T04:14:21.589Z,1005.73
2022-11-20T04:15:21.919Z,1005.76
2022-11-20T04:16:22.260Z,1005.82
2022-11-20T04:18:44.943Z,1005.76
2022-11-20T04:19:45.263Z,1005.72
2022-11-20T04:20:45.623Z,1005.76
2022-11-20T04:21:45.923Z,1005.73
2022-11-20T04:22:46.254Z,1005.79
2022-11-20T04:23:46.595Z,1005.76
2022-11-20T04:24:46.836Z,1005.74
2022-11-20T04:25:47.132Z,1005.71
2022-11-20T04:26:47.474Z,1005.74
2022-11-20T04:27:47.801Z,1005.69
2022-11-20T04:28:48.126Z,1005.72
2022-11-20T04:29:48.477Z,1005.70
2022-11-20T04:30:48.688Z,1005.71
2022-11-20T04:31:49.045Z,1005.74
2022-11-20T04:32:49.317Z,1005.68
2022-11-20T04:33:49.505Z,1005.74
2022-11-20T04:34:49.786Z,1005.77
2022-11-20T04:35:49.984Z,1005.72
2022-11-20T04:36:50.304Z,1005.74
2022-11-20T04:37:50.627Z,1005.79
2022-11-20T04:38:56.319Z,1005.75
2022-11-20T04:39:52.235Z,1005.80
2022-11-20T04:40:51.497Z,1005.76
2022-11-20T04:41:51.855Z,1005.71
2022-11-20T04:42:52.189Z,1005.74
2022-11-20T04:43:52.786Z,1005.69
2022-11-20T04:44:52.864Z,1005.77
2022-11-20T04:45:53.195Z,1005.74
2022-11-20T04:46:53.416Z,1005.74
2022-11-20T04:47:53.760Z,1005.78
2022-11-20T04:48:54.098Z,1005.67
2022-11-20T04:49:54.461Z,1005.74
2022-11-20T04:50:54.666Z,1005.72
2022-11-20T04:51:56.417Z,1005.67
2022-11-20T04:52:55.196Z,1005.67
2022-11-20T04:53:55.543Z,1005.72
2022-11-20T04:54:55.917Z,1005.67
2022-11-20T04:55:56.138Z,1005.69
2022-11-20T04:56:56.370Z,1005.69
2022-11-20T04:57:56.689Z,1005.71
2022-11-20T04:58:57.069Z,1005.70
2022-11-20T04:59:57.307Z,1005.67
2022-11-20T05:00:57.601Z,1005.71
2022-11-20T05:01:58.000Z,1005.69
2022-11-20T05:02:58.230Z,1005.67
2022-11-20T05:03:58.448Z,1005.72
2022-11-20T05:04:58.831Z,1005.69
2022-11-20T05:05:59.013Z,1005.67
2022-11-20T05:06:59.281Z,1005.60
2022-11-20T05:07:59.489Z,1005.63
2022-11-20T05:08:59.752Z,1005.69
2022-11-20T05:10:00.022Z,1005.67
2022-11-20T05:11:00.230Z,1005.64
2022-11-20T05:12:00.624Z,1005.63
2022-11-20T05:13:00.828Z,1005.63
2022-11-20T05:14:01.122Z,1005.61
2022-11-20T05:15:01.348Z,1005.66
2022-11-20T05:16:01.571Z,1005.63
2022-11-20T05:17:01.901Z,1005.64
2022-11-20T05:18:02.178Z,1005.67
2022-11-20T05:19:02.392Z,1005.66
2022-11-20T05:20:02.660Z,1005.70
2022-11-20T05:21:02.894Z,1005.68
2022-11-20T05:22:03.130Z,1005.68
2022-11-20T05:23:03.481Z,1005.68
2022-11-20T05:24:03.743Z,1005.62
2022-11-20T05:25:03.963Z,1005.61
2022-11-20T05:26:04.201Z,1005.63
2022-11-20T05:27:04.434Z,1005.66
2022-11-20T05:28:04.666Z,1005.64
2022-11-20T05:29:04.999Z,1005.64
2022-11-20T05:30:05.284Z,1005.65
2022-11-20T05:31:05.500Z,1005.62
2022-11-20T05:32:05.754Z,1005.59
2022-11-20T05:33:06.015Z,1005.63
2022-11-20T05:34:06.224Z,1005.59
2022-11-20T05:35:06.464Z,1005.63
2022-11-20T05:36:06.699Z,1005.54
2022-11-20T05:37:06.933Z,1005.62
2022-11-20T05:38:07.154Z,1005.58
2022-11-20T05:39:07.516Z,1005.55
2022-11-20T05:40:07.846Z,1005.52
2022-11-20T05:41:08.077Z,1005.54
2022-11-20T05:42:08.407Z,1005.47
2022-11-20T05:43:08.751Z,1005.52
2022-11-20T05:44:09.067Z,1005.53
2022-11-20T05:45:09.420Z,1005.46
2022-11-20T05:46:09.655Z,1005.43
2022-11-20T05:47:09.881Z,1005.50
2022-11-20T05:48:10.218Z,1005.44
2022-11-20T05:49:10.541Z,1005.47
2022-11-20T05:50:10.900Z,1005.46
2022-11-20T05:51:11.125Z,1005.42
2022-11-20T05:52:11.383Z,1005.42
2022-11-20T05:53:11.586Z,1005.49
2022-11-20T05:54:11.925Z,1005.42
2022-11-20T05:55:12.167Z,1005.41
2022-11-20T05:56:12.403Z,1005.45
2022-11-20T05:57:12.649Z,1005.42
2022-11-20T05:58:12.879Z,1005.38
2022-11-20T05:59:13.197Z,1005.38
2022-11-20T06:00:13.556Z,1005.43
2022-11-20T06:01:13.767Z,1005.45
2022-11-20T06:02:14.157Z,1005.41
2022-11-20T06:03:14.379Z,1005.41
2022-11-20T06:04:14.599Z,1005.35
2022-11-20T06:05:14.843Z,1005.42
2022-11-20T06:06:15.082Z,1005.40
2022-11-20T06:07:15.351Z,1005.40
2022-11-20T06:08:15.591Z,1005.41
2022-11-20T06:09:15.801Z,1005.41
2022-11-20T06:10:16.170Z,1005.41
2022-11-20T06:11:16.417Z,1005.43
2022-11-20T06:12:16.636Z,1005.43
2022-11-20T06:13:16.894Z,1005.39
2022-11-20T06:14:17.091Z,1005.43
2022-11-20T06:15:17.454Z,1005.41
2022-11-20T06:16:17.703Z,1005.45
2022-11-20T06:17:17.932Z,1005.39
2022-11-20T06:18:18.280Z,1005.41
2022-11-20T06:19:18.627Z,1005.33
2022-11-20T06:20:18.824Z,1005.31
2022-11-20T06:21:19.061Z,1005.32
2022-11-20T06:22:19.299Z,1005.29
2022-11-20T06:23:19.544Z,1005.34
2022-11-20T06:24:19.775Z,1005.34
2022-11-20T06:25:20.066Z,1005.35
2022-11-20T06:26:20.337Z,1005.28
2022-11-20T06:27:20.582Z,1005.31
2022-11-20T06:28:20.852Z,1005.30
2022-11-20T06:29:21.495Z,1005.35
2022-11-20T06:30:21.429Z,1005.41
2022-11-20T06:31:21.652Z,1005.43
2022-11-20T06:32:21.884Z,1005.40
2022-11-20T06:33:22.114Z,1005.40
2022-11-20T06:34:22.416Z,1005.43
2022-11-20T06:35:22.654Z,1005.40
2022-11-20T06:36:22.915Z,1005.41
2022-11-20T06:37:23.163Z,1005.43
2022-11-20T06:38:23.445Z,1005.47
2022-11-20T06:39:23.948Z,1005.47
2022-11-20T06:40:24.053Z,1005.37
2022-11-20T06:41:24.305Z,1005.45
2022-11-20T06:42:24.583Z,1005.43
2022-11-20T06:43:24.835Z,1005.50
2022-11-20T06:44:25.121Z,1005.50
2022-11-20T06:45:25.376Z,1005.49
2022-11-20T06:46:25.655Z,1005.40
2022-11-20T06:47:25.904Z,1005.43
2022-11-20T06:48:26.193Z,1005.41
2022-11-20T06:49:26.445Z,1005.43
2022-11-20T06:50:26.735Z,1005.38
2022-11-20T06:51:27.039Z,1005.37
2022-11-20T06:52:27.326Z,1005.42
2022-11-20T06:53:27.591Z,1005.34
2022-11-20T06:54:27.855Z,1005.36
2022-11-20T06:55:28.141Z,1005.34
2022-11-20T06:56:28.406Z,1005.29
2022-11-20T06:57:28.677Z,1005.31
2022-11-20T06:58:28.935Z,1005.30
2022-11-20T06:59:29.315Z,1005.26
2022-11-20T07:00:29.528Z,1005.26
2022-11-20T07:01:29.677Z,1005.30
2022-11-20T07:02:29.939Z,1005.25
2022-11-20T07:03:30.188Z,1005.32
2022-11-20T07:04:30.473Z,1005.32
2022-11-20T07:05:30.759Z,1005.24
2022-11-20T07:06:31.046Z,1005.29
2022-11-20T07:07:31.358Z,1005.29
2022-11-20T07:08:31.528Z,1005.25
2022-11-20T07:09:31.798Z,1005.23
2022-11-20T07:10:32.088Z,1005.30
2022-11-20T07:11:32.351Z,1005.27
2022-11-20T07:12:32.612Z,1005.27
2022-11-20T07:13:32.867Z,1005.29
2022-11-20T07:14:33.142Z,1005.32
2022-11-20T07:15:33.432Z,1005.27
2022-11-20T07:16:33.717Z,1005.27
2022-11-20T07:17:33.969Z,1005.37
2022-11-20T07:18:34.241Z,1005.24
2022-11-20T07:19:34.499Z,1005.28
2022-11-20T07:20:34.811Z,1005.28
2022-11-20T07:21:35.070Z,1005.24
2022-11-20T07:22:35.325Z,1005.22
2022-11-20T07:23:35.600Z,1005.22
2022-11-20T07:24:35.861Z,1005.14
2022-11-20T07:25:36.121Z,1005.22
2022-11-20T07:26:36.399Z,1005.19
2022-11-20T07:27:36.664Z,1005.19
2022-11-20T07:28:36.913Z,1005.21
2022-11-20T07:29:37.181Z,1005.26
2022-11-20T07:30:37.524Z,1005.21
2022-11-20T07:31:37.702Z,1005.21
2022-11-20T07:32:37.984Z,1005.22
2022-11-20T07:33:38.284Z,1005.18
2022-11-20T07:34:38.541Z,1005.25
2022-11-20T07:35:38.811Z,1005.22
2022-11-20T07:36:39.083Z,1005.16
2022-11-20T07:37:39.339Z,1005.19
2022-11-20T07:38:39.599Z,1005.19
2022-11-20T07:39:39.867Z,1005.21
2022-11-20T07:40:40.165Z,1005.21
2022-11-20T07:41:40.423Z,1005.18
2022-11-20T07:42:40.695Z,1005.23
2022-11-20T07:43:41.601Z,1005.23
2022-11-20T07:44:41.274Z,1005.18
2022-11-20T07:45:41.556Z,1005.13
2022-11-20T07:46:41.822Z,1005.16
2022-11-20T07:47:42.089Z,1005.17
2022-11-20T07:48:42.425Z,1005.21
2022-11-20T07:49:42.686Z,1005.15
2022-11-20T07:50:42.965Z,1005.15
2022-11-20T07:51:43.222Z,1005.14
2022-11-20T07:52:43.513Z,1005.17
2022-11-20T07:53:43.769Z,1005.17
2022-11-20T07:54:44.056Z,1005.18
2022-11-20T07:55:44.337Z,1005.19
2022-11-20T07:56:44.607Z,1005.21
2022-11-20T07:57:44.897Z,1005.20
2022-11-20T07:58:45.187Z,1005.21
2022-11-20T07:59:45.457Z,1005.21
2022-11-20T08:00:45.781Z,1005.19
2022-11-20T08:01:46.046Z,1005.16
2022-11-20T08:02:46.327Z,1005.22
2022-11-20T08:03:46.598Z,1005.15
2022-11-20T08:04:46.886Z,1005.14
2022-11-20T08:05:47.177Z,1005.20
2022-11-20T08:06:47.447Z,1005.18
2022-11-20T08:07:47.763Z,1005.19
2022-11-20T08:08:47.957Z,1005.13
2022-11-20T08:09:48.236Z,1005.15
2022-11-20T08:10:48.549Z,1005.15
2022-11-20T08:11:48.812Z,1005.16
2022-11-20T08:12:49.111Z,1005.13
2022-11-20T08:13:49.379Z,1005.12
2022-11-20T08:14:49.648Z,1005.09
2022-11-20T08:15:49.943Z,1005.11
2022-11-20T08:16:50.224Z,1005.18
2022-11-20T08:18:08.600Z,1005.10
2022-11-20T08:18:51.741Z,1005.12
2022-11-20T08:19:51.066Z,1005.11
2022-11-20T08:20:51.349Z,1005.12
2022-11-20T08:21:51.618Z,1005.07
2022-11-20T08:22:51.921Z,1005.13
2022-11-20T08:23:52.180Z,1005.11
2022-11-20T08:24:52.485Z,1005.13
2022-11-20T08:25:52.799Z,1005.08
2022-11-20T08:26:53.059Z,1005.07
2022-11-20T08:27:57.814Z,1005.05
2022-11-20T08:28:54.604Z,1005.08
2022-11-20T08:29:53.931Z,1005.05
2022-11-20T08:30:54.250Z,1005.08
2022-11-20T08:31:54.530Z,1005.06
2022-11-20T08:32:54.801Z,1004.99
2022-11-20T08:33:55.072Z,1005.04
2022-11-20T08:34:55.332Z,1005.03
2022-11-20T08:35:55.646Z,1005.01
2022-11-20T08:36:55.941Z,1004.97
2022-11-20T08:37:56.201Z,1004.98
2022-11-20T08:38:56.484Z,1005.00
2022-11-20T08:39:56.764Z,1004.98
2022-11-20T08:40:57.072Z,1005.01
2022-11-20T08:41:57.378Z,1004.97
2022-11-20T08:42:57.711Z,1005.00
2022-11-20T08:43:57.999Z,1004.95
2022-11-20T08:44:58.252Z,1004.97
2022-11-20T08:45:58.545Z,1004.96
2022-11-20T08:46:58.820Z,1004.94
2022-11-20T08:47:59.109Z,1004.91
2022-11-20T08:48:59.373Z,1004.90
2022-11-20T08:49:59.643Z,1004.94
2022-11-20T08:50:59.979Z,1004.93
2022-11-20T08:52:00.266Z,1004.90
2022-11-20T08:53:00.608Z,1004.85
2022-11-20T08:54:00.853Z,1004.90
2022-11-20T08:55:01.124Z,1004.87
2022-11-20T08:56:01.423Z,1004.88
2022-11-20T08:57:01.695Z,1004.85
2022-11-20T08:58:01.964Z,1004.88
2022-11-20T09:00:06.477Z,1004.85
2022-11-20T09:01:02.893Z,1004.94
2022-11-20T09:02:03.065Z,1004.88
2022-11-20T09:03:03.365Z,1004.91
2022-11-20T09:04:03.683Z,1004.92
2022-11-20T09:05:03.967Z,1004.96
2022-11-20T09:06:04.318Z,1004.91
2022-11-20T09:07:04.597Z,1004.85
2022-11-20T09:08:04.817Z,1004.89
2022-11-20T09:09:06.856Z,1004.83
2022-11-20T09:11:06.566Z,1004.84
2022-11-20T09:12:05.787Z,1004.85
2022-11-20T09:13:06.078Z,1004.94
2022-11-20T09:14:06.403Z,1004.80
2022-11-20T09:15:06.677Z,1004.91
2022-11-20T09:16:06.999Z,1004.85
2022-11-20T09:17:07.338Z,1004.90
2022-11-20T09:18:07.650Z,1004.91
2022-11-20T09:19:33.987Z,1004.91
2022-11-20T09:20:09.178Z,1004.93
2022-11-20T09:21:08.573Z,1004.91
2022-11-20T09:22:08.759Z,1004.85
2022-11-20T09:23:09.049Z,1004.94
2022-11-20T09:24:09.358Z,1004.88
2022-11-20T09:25:09.670Z,1004.91
2022-11-20T09:26:09.956Z,1004.93
2022-11-20T09:27:10.241Z,1004.87
2022-11-20T09:28:10.520Z,1004.91
2022-11-20T09:29:10.838Z,1004.95
2022-11-20T09:30:11.118Z,1004.86
2022-11-20T09:31:11.411Z,1004.90
2022-11-20T09:32:11.712Z,1004.90
2022-11-20T09:33:11.989Z,1004.94
2022-11-20T09:34:12.270Z,1004.92
2022-11-20T09:35:12.539Z,1004.94
2022-11-20T09:36:12.840Z,1004.96
2022-11-20T09:37:13.116Z,1004.88
2022-11-20T09:38:13.392Z,1004.94
2022-11-20T09:39:13.670Z,1004.89
2022-11-20T09:40:13.940Z,1004.92
2022-11-20T09:41:14.232Z,1004.91
2022-11-20T09:42:14.510Z,1004.87
2022-11-20T09:43:14.774Z,1004.90
2022-11-20T09:44:15.048Z,1004.83
2022-11-20T09:45:15.322Z,1004.90
2022-11-20T09:46:15.621Z,1004.85
2022-11-20T09:47:15.901Z,1004.93
2022-11-20T09:48:16.194Z,1004.84
2022-11-20T09:49:16.480Z,1004.76
2022-11-20T09:50:16.762Z,1004.79
2022-11-20T09:51:17.039Z,1004.78
2022-11-20T09:52:17.355Z,1004.78
2022-11-20T09:53:17.610Z,1004.78
2022-11-20T09:54:17.884Z,1004.82
2022-11-20T09:55:18.166Z,1004.75
2022-11-20T09:56:22.462Z,1004.75
2022-11-20T09:57:18.761Z,1004.70
2022-11-20T09:58:19.044Z,1004.77
2022-11-20T09:59:19.803Z,1004.75
2022-11-20T10:00:19.612Z,1004.72
2022-11-20T10:01:19.950Z,1004.68
2022-11-20T10:02:20.230Z,1004.72
2022-11-20T10:03:20.504Z,1004.72
2022-11-20T10:04:20.733Z,1004.71
2022-11-20T10:05:21.052Z,1004.64
2022-11-20T10:06:21.354Z,1004.67
2022-11-20T10:07:37.013Z,1004.67
2022-11-20T10:08:22.916Z,1004.69
2022-11-20T10:09:22.379Z,1004.74
2022-11-20T10:10:22.465Z,1004.65
2022-11-20T10:11:22.756Z,1004.70
2022-11-20T10:12:23.015Z,1004.69
2022-11-20T10:13:23.278Z,1004.60
2022-11-20T10:14:23.545Z,1004.69
2022-11-20T10:15:23.948Z,1004.60
2022-11-20T10:16:24.125Z,1004.64
2022-11-20T10:17:24.387Z,1004.58
2022-11-20T10:18:24.655Z,1004.59
2022-11-20T10:19:24.941Z,1004.57
2022-11-20T10:20:25.197Z,1004.63
2022-11-20T10:21:25.474Z,1004.54
2022-11-20T10:22:25.748Z,1004.54
2022-11-20T10:23:26.285Z,1004.55
2022-11-20T10:24:26.264Z,1004.54
2022-11-20T10:25:26.538Z,1004.52
2022-11-20T10:26:26.917Z,1004.47
2022-11-20T10:27:27.054Z,1004.51
2022-11-20T10:28:27.318Z,1004.48
2022-11-20T10:29:27.579Z,1004.46
2022-11-20T10:30:27.939Z,1004.45
2022-11-20T10:31:28.105Z,1004.46
2022-11-20T10:32:28.378Z,1004.51
2022-11-20T10:33:38.793Z,1004.44
2022-11-20T10:34:29.907Z,1004.48
2022-11-20T10:35:29.110Z,1004.49
2022-11-20T10:36:29.402Z,1004.52
2022-11-20T10:37:29.657Z,1004.50
2022-11-20T10:38:30.267Z,1004.53
2022-11-20T10:39:30.208Z,1004.44
2022-11-20T10:40:30.530Z,1004.46
2022-11-20T10:41:33.107Z,1004.45
2022-11-20T10:42:32.049Z,1004.39
2022-11-20T10:43:31.380Z,1004.40
2022-11-20T10:44:31.643Z,1004.45
2022-11-20T10:45:31.955Z,1004.44
2022-11-20T10:46:32.220Z,1004.48
2022-11-20T10:47:32.490Z,1004.47
2022-11-20T10:48:32.785Z,1004.43
2022-11-20T10:49:33.049Z,1004.40
2022-11-20T10:50:33.320Z,1004.41
2022-11-20T10:51:33.605Z,1004.43
2022-11-20T10:52:33.880Z,1004.40
2022-11-20T10:53:34.154Z,1004.36
2022-11-20T10:54:34.511Z,1004.36
2022-11-20T10:55:34.723Z,1004.44
2022-11-20T10:56:35.006Z,1004.37
2022-11-20T10:57:35.271Z,1004.40
2022-11-20T10:58:35.531Z,1004.36
2022-11-20T10:59:35.799Z,1004.43
2022-11-20T11:00:36.246Z,1004.40
2022-11-20T11:01:36.477Z,1004.35
2022-11-20T11:02:36.735Z,1004.33
2022-11-20T11:03:37.010Z,1004.37
2022-11-20T11:04:37.272Z,1004.38
2022-11-20T11:05:37.566Z,1004.34
2022-11-20T11:06:37.932Z,1004.45
2022-11-20T11:07:38.251Z,1004.37
2022-11-20T11:08:38.526Z,1004.42
2022-11-20T11:09:38.800Z,1004.42
2022-11-20T11:10:39.075Z,1004.35
2022-11-20T11:11:39.374Z,1004.38
2022-11-20T11:12:39.640Z,1004.38
2022-11-20T11:13:39.903Z,1004.32
2022-11-20T11:14:40.201Z,1004.34
2022-11-20T11:15:40.475Z,1004.33
2022-11-20T11:16:40.773Z,1004.32
2022-11-20T11:17:41.054Z,1004.37
2022-11-20T11:18:41.335Z,1004.36
2022-11-20T11:19:41.623Z,1004.30
2022-11-20T11:20:41.906Z,1004.33
2022-11-20T11:21:42.195Z,1004.32
2022-11-20T11:22:42.488Z,1004.30
2022-11-20T11:23:42.755Z,1004.27
2022-11-20T11:24:43.504Z,1004.32
2022-11-20T11:25:43.286Z,1004.29
2022-11-20T11:26:43.596Z,1004.30
2022-11-20T11:27:43.877Z,1004.32
2022-11-20T11:28:44.153Z,1004.30
2022-11-20T11:29:44.470Z,1004.25
2022-11-20T11:30:44.745Z,1004.25
2022-11-20T11:31:45.044Z,1004.25
2022-11-20T11:32:45.376Z,1004.32
2022-11-20T11:33:45.648Z,1004.25
2022-11-20T11:34:45.926Z,1004.22
2022-11-20T11:35:50.006Z,1004.23
2022-11-20T11:36:47.642Z,1004.20
2022-11-20T11:37:46.826Z,1004.21
2022-11-20T11:38:47.098Z,1004.16
2022-11-20T11:39:49.356Z,1004.17
2022-11-20T11:40:48.628Z,1004.26
2022-11-20T11:41:47.882Z,1004.19
2022-11-20T11:42:48.167Z,1004.17
2022-11-20T11:43:48.457Z,1004.15
2022-11-20T11:44:48.749Z,1004.16
2022-11-20T11:45:49.037Z,1004.19
2022-11-20T11:46:49.329Z,1004.10
2022-11-20T11:47:49.597Z,1004.19
2022-11-20T11:48:50.852Z,1004.19
2022-11-20T11:49:50.219Z,1004.16
2022-11-20T11:50:50.521Z,1004.19
2022-11-20T11:51:50.826Z,1004.15
2022-11-20T11:52:51.121Z,1004.18
2022-11-20T11:53:51.407Z,1004.14
2022-11-20T11:54:51.700Z,1004.12
2022-11-20T11:55:51.991Z,1004.16
2022-11-20T11:56:52.309Z,1004.13
2022-11-20T11:57:52.629Z,1004.11
2022-11-20T11:58:52.911Z,1004.12
2022-11-20T11:59:53.172Z,1004.17
2022-11-20T12:00:53.439Z,1004.08
2022-11-20T12:01:53.804Z,1004.10
2022-11-20T12:02:53.986Z,1004.15
2022-11-20T12:03:54.270Z,1004.07
2022-11-20T12:04:55.329Z,1004.08
2022-11-20T12:05:54.981Z,1004.07
2022-11-20T12:06:55.121Z,1004.05
2022-11-20T12:07:55.466Z,1004.05
2022-11-20T12:08:55.753Z,1004.12
2022-11-20T12:09:56.046Z,1003.95
2022-11-20T12:10:56.320Z,1004.00
2022-11-20T12:11:56.646Z,1003.99